Skip to main content

NOAA/GLERL Met Station at Michigan City, IN

Previous 3 Hours (2 minute increments)
See also Previous 5 Days (top of hour)
Jump down to Data
Switch to [English][Metric]
Zoom: Click and drag, Pan: shift-click and drag, Unzoom: double-click, Unzoom All




See also 1-day windrose plot


NOAA/GLERL Met Station at Michigan City, IN

Previous 3 Hours (2 minute increments)
See also Previous 5 Days (top of hour only)
Jump up to Graphs
Switch to [English][Metric]
                  Wind  Wind  Wind   Air   Dew   Rel     Sta   PAR
                   Spd   Gst   Dir  Temp    Pt   Hum    Pres uE/m2/
YYYY-MM-DD   CST   m/s   m/s   deg     C     C     %      mb   sec
2017-11-24 01:22   5.6   6.9   163   2.2  -3.6  65.5    0.00     0
2017-11-24 01:20   5.4   7.0   163   2.2  -3.7  65.1    0.00     0
2017-11-24 01:18   6.5   8.1   166   2.4  -3.6  64.4    0.00     0
2017-11-24 01:16   6.9   8.3   165   2.3  -3.7  64.7    0.00     0
2017-11-24 01:14   7.0   9.1   165   2.3  -3.6  65.1    0.00     0
2017-11-24 01:12   6.5   8.2   164   2.3  -3.6  65.1    0.00     0
2017-11-24 01:10   6.1   7.3   164   2.3  -3.6  65.2    0.00     0
2017-11-24 01:08   7.0   8.6   164   2.2  -3.7  65.0    0.00     0
2017-11-24 01:06   7.1   8.4   163   2.3  -3.6  65.2    0.00     0
2017-11-24 01:04   7.5   8.9   166   2.2  -3.7  65.2    0.00     0
2017-11-24 01:02   6.1   8.5   165   2.2  -3.6  65.6    0.00     0
2017-11-24 01:00   6.1   7.9   162   2.2  -3.6  65.6    0.00     0
2017-11-24 00:58   7.0   8.0   163   2.1  -3.7  65.4    0.00     0
2017-11-24 00:56   6.6   8.6   167   2.2  -3.6  65.3    0.00     0
2017-11-24 00:54   7.0   8.3   168   2.2  -3.6  65.4    0.00     0
2017-11-24 00:52   6.3   7.4   166   2.2  -3.6  65.5    0.00     0
2017-11-24 00:50   6.7   7.4   166   2.2  -3.6  65.6    0.00     0
2017-11-24 00:48   6.2   7.3   167   2.2  -3.5  65.9    0.00     0
2017-11-24 00:46   6.4   7.7   168   2.2  -3.5  66.2    0.00     0
2017-11-24 00:44   5.8   6.5   165   2.1  -3.5  66.4    0.00     0
2017-11-24 00:42   5.9   7.1   170   2.1  -3.4  66.8    0.00     0
2017-11-24 00:40   6.2   6.8   166   2.1  -3.5  66.2    0.00     0
2017-11-24 00:38   6.2   7.3   167   2.1  -3.6  65.8    0.00     0
2017-11-24 00:36   6.3   7.2   166   2.1  -3.6  66.1    0.00     0
2017-11-24 00:34   6.3   7.2   168   2.2  -3.5  66.0    0.00     0
2017-11-24 00:32   6.3   7.2   166   2.2  -3.5  65.8    0.00     0
2017-11-24 00:30   5.9   7.0   167   2.2  -3.4  66.3    0.00     0
2017-11-24 00:28   5.8   6.4   167   2.2  -3.5  66.2    0.00     0
2017-11-24 00:26   6.1   7.1   167   2.2  -3.5  65.9    0.00     0
2017-11-24 00:24   5.9   7.0   165   2.2  -3.5  65.9    0.00     0
2017-11-24 00:22   5.7   6.6   167   2.2  -3.5  66.0    0.00     0
2017-11-24 00:20   6.1   7.6   167   2.2  -3.5  65.8    0.00     0
2017-11-24 00:18   6.5   8.0   167   2.3  -3.5  65.7    0.00     0
2017-11-24 00:16   6.4   7.4   165   2.3  -3.4  66.0    0.00     0
2017-11-24 00:14   6.7   7.8   162   2.3  -3.4  65.9    0.00     0
2017-11-24 00:12   6.2   7.4   168   2.3  -3.5  65.6    0.00     0
2017-11-24 00:10   7.2   8.6   164   2.3  -3.5  65.4    0.00     0
2017-11-24 00:08   7.1   8.0   164   2.3  -3.5  65.6    0.00     0
2017-11-24 00:06   6.7   8.2   165   2.3  -3.5  65.5    0.00     0
2017-11-24 00:04   6.7   7.8   166   2.3  -3.5  65.6    0.00     0
2017-11-24 00:02   6.8   8.3   165   2.4  -3.4  65.5    0.00     0
2017-11-24 00:00   6.9   8.0   166   2.4  -3.4  65.3    0.00     0
2017-11-23 23:58   7.0   8.4   165   2.4  -3.5  65.2    0.00     0
2017-11-23 23:56   7.2   7.9   163   2.4  -3.4  65.6    0.00     0
2017-11-23 23:54   6.8   7.8   167   2.4  -3.4  65.5    0.00     0
2017-11-23 23:52   6.8   7.6   166   2.4  -3.4  65.4    0.00     0
2017-11-23 23:50   6.3   7.0   166   2.4  -3.3  65.9    0.00     0
2017-11-23 23:48   6.9   8.2   164   2.5  -3.4  65.1    0.00     0
2017-11-23 23:46   6.4   7.4   164   2.5  -3.4  65.2    0.00     0
2017-11-23 23:44   6.4   7.5   167   2.5  -3.4  65.0    0.00     0
2017-11-23 23:42   6.9   8.3   165   2.5  -3.4  64.9    0.00     0
2017-11-23 23:40   6.8   8.1   165   2.6  -3.4  64.7    0.00     0
2017-11-23 23:38   6.5   7.6   166   2.6  -3.4  64.6    0.00     0
2017-11-23 23:36   6.6   7.6   163   2.6  -3.4  64.4    0.00     0
2017-11-23 23:34   6.9   8.0   167   2.7  -3.4  64.2    0.00     0
2017-11-23 23:32   6.5   7.9   164   2.7  -3.3  64.4    0.00     0
2017-11-23 23:30   5.7   7.4   166   2.7  -3.3  64.7    0.00     0
2017-11-23 23:28   5.7   7.2   164   2.7  -3.3  64.7    0.00     0
2017-11-23 23:26   5.1   6.3   161   2.8  -3.2  64.4    0.00     0
2017-11-23 23:24   5.8   7.7   163   2.7  -3.3  64.5    0.00     0
2017-11-23 23:22   6.4   7.6   164   2.8  -3.4  63.9    0.00     0
2017-11-23 23:20   6.1   7.4   163   2.8  -3.3  64.1    0.00     0
2017-11-23 23:18   6.2   7.6   163   2.7  -3.3  64.7    0.00     0
2017-11-23 23:16   5.1   7.3   161   2.7  -3.2  65.3    0.00     0
2017-11-23 23:14   5.5   6.7   167   2.7  -3.3  64.8    0.00     0
2017-11-23 23:12   4.6   5.9   155   2.7  -3.2  64.9    0.00     0
2017-11-23 23:10   5.3   7.1   163   2.8  -3.2  64.5    0.00     0
2017-11-23 23:08   5.2   6.4   161   2.7  -3.3  64.7    0.00     0
2017-11-23 23:06   5.6   7.5   160   2.8  -3.2  64.5    0.00     0
2017-11-23 23:04   5.8   7.1   159   2.7  -3.3  64.7    0.00     0
2017-11-23 23:02   5.3   7.7   161   2.7  -3.2  65.0    0.00     0
2017-11-23 23:00   5.3   6.5   157   2.7  -3.2  65.1    0.00     0
2017-11-23 22:58   5.1   5.9   155   2.8  -3.1  65.1    0.00     0
2017-11-23 22:56   5.5   7.2   162   3.0  -3.1  64.1    0.00     0
2017-11-23 22:54   5.7   8.3   157   3.0  -3.2  63.7    0.00     0
2017-11-23 22:52   5.3   6.5   165   2.9  -3.3  63.9    0.00     0
2017-11-23 22:50   6.1   7.7   164   2.9  -3.3  63.6    0.00     0
2017-11-23 22:48   5.9   6.8   168   2.9  -3.3  63.6    0.00     0
2017-11-23 22:46   6.7   8.4   165   3.0  -3.2  63.7    0.00     0
2017-11-23 22:44   6.1   7.3   164   3.0  -3.2  63.8    0.00     0
2017-11-23 22:42   6.3   7.6   163   2.9  -3.3  63.7    0.00     0
2017-11-23 22:40   6.0   7.0   165   2.8  -3.3  64.2    0.00     0
2017-11-23 22:38   5.8   7.0   165   2.8  -3.3  64.0    0.00     0
2017-11-23 22:36   6.1   7.3   167   2.9  -3.3  63.6    0.00     0
2017-11-23 22:34   5.6   7.0   166   2.9  -3.3  63.7    0.00     0
2017-11-23 22:32   6.2   7.3   165   2.9  -3.4  63.4    0.00     0
2017-11-23 22:30   5.9   7.4   167   2.9  -3.4  63.3    0.00     0
2017-11-23 22:28   6.3   7.8   164   3.0  -3.3  63.3    0.00     0
2017-11-23 22:26   6.5   8.1   164   3.1  -3.3  62.8    0.00     0
2017-11-23 22:24   6.7   7.5   165   3.1  -3.3  62.7    0.00     0
2017-11-23 22:22   6.7   7.8   165   3.2  -3.3  62.4    0.00     0